createdAt,value
2017-10-07T00:00:33.840Z,13.06
2017-10-07T00:01:43.861Z,13.1
2017-10-07T00:02:53.882Z,13.11
2017-10-07T00:04:05.280Z,13.14
2017-10-07T00:05:15.617Z,13.1
2017-10-07T00:06:25.950Z,13.09
2017-10-07T00:07:35.969Z,13.14
2017-10-07T00:08:46.310Z,13.13
2017-10-07T00:09:56.658Z,13.14
2017-10-07T00:11:06.375Z,13.17
2017-10-07T00:12:16.402Z,13.14
2017-10-07T00:13:26.734Z,13.25
2017-10-07T00:14:36.751Z,13.17
2017-10-07T00:15:46.463Z,13.25
2017-10-07T00:16:56.814Z,13.29
2017-10-07T00:18:07.161Z,13.28
2017-10-07T00:19:17.648Z,13.39
2017-10-07T00:20:27.989Z,13.4
2017-10-07T00:21:38.312Z,13.37
2017-10-07T00:22:48.337Z,13.36
2017-10-07T00:23:58.665Z,13.36
2017-10-07T00:25:09.043Z,13.31
2017-10-07T00:26:19.098Z,13.29
2017-10-07T00:27:29.457Z,13.21
2017-10-07T00:28:39.797Z,13.32
2017-10-07T00:29:50.142Z,13.27
2017-10-07T00:31:00.516Z,13.39
2017-10-07T00:32:10.863Z,13.4
2017-10-07T00:33:21.188Z,13.36
2017-10-07T00:34:31.541Z,13.35
2017-10-07T00:35:41.882Z,13.36
2017-10-07T00:36:52.288Z,13.4
2017-10-07T00:38:02.305Z,13.42
2017-10-07T00:39:12.966Z,13.36
2017-10-07T00:40:22.679Z,13.36
2017-10-07T00:41:33.026Z,13.35
2017-10-07T00:42:43.362Z,13.35
2017-10-07T00:43:53.731Z,13.36
2017-10-07T00:45:04.076Z,13.31
2017-10-07T00:46:14.441Z,13.36
2017-10-07T00:47:24.459Z,13.37
2017-10-07T00:48:34.871Z,13.48
2017-10-07T00:49:45.225Z,13.55
2017-10-07T00:50:55.600Z,13.54
2017-10-07T00:52:05.629Z,13.57
2017-10-07T00:53:15.659Z,13.6
2017-10-07T00:54:25.720Z,13.65
2017-10-07T00:55:35.736Z,13.57
2017-10-07T00:56:46.089Z,13.65
2017-10-07T00:57:56.103Z,13.68
2017-10-07T00:59:06.474Z,13.57
2017-10-07T01:00:16.852Z,13.65
2017-10-07T01:01:27.190Z,13.69
2017-10-07T01:02:36.887Z,13.72
2017-10-07T01:03:47.226Z,13.72
2017-10-07T01:04:57.557Z,13.86
2017-10-07T01:06:07.937Z,13.94
2017-10-07T01:07:18.290Z,13.91
2017-10-07T01:08:28.313Z,13.86
2017-10-07T01:09:38.651Z,14.01
2017-10-07T01:10:49.000Z,13.94
2017-10-07T01:11:59.618Z,13.97
2017-10-07T01:13:09.630Z,14.02
2017-10-07T01:14:19.987Z,14.03
2017-10-07T01:15:29.688Z,14.05
2017-10-07T01:16:39.725Z,14.11
2017-10-07T01:17:49.756Z,14.11
2017-10-07T01:19:00.117Z,14.11
2017-10-07T01:20:10.143Z,14.15
2017-10-07T01:21:20.467Z,14.09
2017-10-07T01:22:30.480Z,14.11
2017-10-07T01:23:40.861Z,14.05
2017-10-07T01:24:51.203Z,14.08
2017-10-07T01:26:00.919Z,14.09
2017-10-07T01:27:11.260Z,13.93
2017-10-07T01:28:21.625Z,13.94
2017-10-07T01:29:31.949Z,13.87
2017-10-07T01:30:42.343Z,13.84
2017-10-07T01:31:52.394Z,13.86
2017-10-07T01:33:02.724Z,13.75
2017-10-07T01:34:13.073Z,13.73
2017-10-07T01:35:23.098Z,13.76
2017-10-07T01:36:33.474Z,13.72
2017-10-07T01:37:43.496Z,13.63
2017-10-07T01:38:53.839Z,13.62
2017-10-07T01:40:04.183Z,13.57
2017-10-07T01:41:14.248Z,13.65
2017-10-07T01:42:24.596Z,13.66
2017-10-07T01:43:34.618Z,13.6
2017-10-07T01:44:44.641Z,13.51
2017-10-07T01:45:54.976Z,13.55
2017-10-07T01:47:05.369Z,13.54
2017-10-07T01:48:15.381Z,13.53
2017-10-07T01:49:25.719Z,13.51
2017-10-07T01:50:36.053Z,13.51
2017-10-07T01:51:46.434Z,13.55
2017-10-07T01:52:56.786Z,13.55
2017-10-07T01:54:07.129Z,13.58
2017-10-07T01:55:17.474Z,13.65
2017-10-07T01:56:27.513Z,13.68
2017-10-07T01:57:37.855Z,13.58
2017-10-07T01:58:48.236Z,13.63
2017-10-07T01:59:58.574Z,13.55
2017-10-07T02:01:08.932Z,13.68
2017-10-07T02:02:18.942Z,13.66
2017-10-07T02:03:28.963Z,13.63
2017-10-07T02:04:39.343Z,13.53
2017-10-07T02:05:49.679Z,13.65
2017-10-07T02:07:00.043Z,13.57
2017-10-07T02:08:10.073Z,13.65
2017-10-07T02:09:20.410Z,13.58
2017-10-07T02:10:30.741Z,13.54
2017-10-07T02:11:41.104Z,13.62
2017-10-07T02:12:51.128Z,13.66
2017-10-07T02:14:01.506Z,13.66
2017-10-07T02:15:11.568Z,13.58
2017-10-07T02:16:21.905Z,13.54
2017-10-07T02:17:32.255Z,13.53
2017-10-07T02:18:42.275Z,13.53
2017-10-07T02:19:51.980Z,13.54
2017-10-07T02:21:02.326Z,13.47
2017-10-07T02:22:12.656Z,13.57
2017-10-07T02:23:22.989Z,13.53
2017-10-07T02:24:33.316Z,13.53
2017-10-07T02:25:43.655Z,13.54
2017-10-07T02:26:54.005Z,13.5
2017-10-07T02:28:04.016Z,13.5
2017-10-07T02:29:14.345Z,13.57
2017-10-07T02:30:24.697Z,13.66
2017-10-07T02:31:34.410Z,13.62
2017-10-07T02:32:44.750Z,13.62
2017-10-07T02:33:54.485Z,13.54
2017-10-07T02:35:04.509Z,13.6
2017-10-07T02:36:14.846Z,13.57
2017-10-07T02:37:25.201Z,13.57
2017-10-07T02:38:35.237Z,13.6
2017-10-07T02:39:45.303Z,13.53
2017-10-07T02:40:55.641Z,13.5
2017-10-07T02:42:05.669Z,13.51
2017-10-07T02:43:15.986Z,13.5
2017-10-07T02:44:26.326Z,13.42
2017-10-07T02:45:36.393Z,13.37
2017-10-07T02:46:46.413Z,13.39
2017-10-07T02:47:56.753Z,13.36
2017-10-07T02:49:06.778Z,13.36
2017-10-07T02:50:17.111Z,13.29
2017-10-07T02:51:27.441Z,13.29
2017-10-07T02:52:37.779Z,13.28
2017-10-07T02:53:47.806Z,13.24
2017-10-07T02:54:57.851Z,13.21
2017-10-07T02:56:08.205Z,13.2
2017-10-07T02:57:18.235Z,13.17
2017-10-07T02:58:28.571Z,13.17
2017-10-07T02:59:38.901Z,13.11
2017-10-07T03:00:48.911Z,13.1
2017-10-07T03:01:58.924Z,13.11
2017-10-07T03:33:40.647Z,10.58
2017-10-07T03:34:50.967Z,10.49
2017-10-07T03:36:00.976Z,10.61
2017-10-07T03:37:11.332Z,10.66
2017-10-07T03:38:21.649Z,10.79
2017-10-07T03:39:31.718Z,10.9
2017-10-07T03:40:42.061Z,10.91
2017-10-07T03:41:52.387Z,11.05
2017-10-07T03:43:02.716Z,11.26
2017-10-07T03:44:13.051Z,11.34
2017-10-07T03:45:23.439Z,11.6
2017-10-07T03:46:33.450Z,11.81
2017-10-07T03:47:43.786Z,11.89
2017-10-07T03:48:54.110Z,12.13
2017-10-07T03:50:04.131Z,12.25
2017-10-07T03:51:13.833Z,12.38
2017-10-07T03:52:23.856Z,12.45
2017-10-07T03:53:34.174Z,12.61
2017-10-07T03:54:44.217Z,12.63
2017-10-07T03:55:54.554Z,12.71
2017-10-07T03:57:04.624Z,12.8
2017-10-07T03:58:14.967Z,12.88
2017-10-07T03:59:25.316Z,12.89
2017-10-07T04:00:35.653Z,13.1
2017-10-07T04:01:45.668Z,13.14
2017-10-07T04:02:56.019Z,13.17
2017-10-07T04:04:06.358Z,13.24
2017-10-07T04:05:16.377Z,13.29
2017-10-07T04:06:26.724Z,13.28
2017-10-07T04:07:36.729Z,13.39
2017-10-07T04:08:47.069Z,13.44
2017-10-07T04:09:57.401Z,13.4
2017-10-07T04:11:07.731Z,13.42
2017-10-07T04:12:17.758Z,13.5
2017-10-07T04:13:27.777Z,13.36
2017-10-07T04:14:38.117Z,13.45
2017-10-07T04:15:48.142Z,13.39
2017-10-07T04:16:58.475Z,13.37
2017-10-07T04:18:08.789Z,13.35
2017-10-07T04:19:20.359Z,13.28
2017-10-07T04:20:30.762Z,13.25
2017-10-07T04:21:40.469Z,13.28
2017-10-07T04:22:50.482Z,13.2
2017-10-07T04:24:00.821Z,13.17
2017-10-07T04:25:10.190Z,13.13
2017-10-07T04:26:20.264Z,13.13
2017-10-07T04:27:30.603Z,13.17
2017-10-07T04:28:40.953Z,13.2
2017-10-07T04:29:50.996Z,13.2
2017-10-07T04:31:01.337Z,13.29
2017-10-07T04:32:11.728Z,13.29
2017-10-07T04:33:21.732Z,13.29
2017-10-07T04:34:32.072Z,13.37
2017-10-07T04:35:42.409Z,13.36
2017-10-07T04:36:52.731Z,13.42
2017-10-07T04:38:03.115Z,13.39
2017-10-07T04:39:12.818Z,13.36
2017-10-07T04:40:23.157Z,13.47
2017-10-07T04:41:33.523Z,13.42
2017-10-07T04:42:43.545Z,13.39
2017-10-07T04:43:53.571Z,13.45
2017-10-07T04:45:03.891Z,13.57
2017-10-07T04:46:13.896Z,13.57
2017-10-07T04:47:24.237Z,13.57
2017-10-07T04:48:34.254Z,13.51
2017-10-07T04:49:44.649Z,13.53
2017-10-07T04:50:54.667Z,13.63
2017-10-07T04:52:04.691Z,13.54
2017-10-07T04:53:14.706Z,13.58
2017-10-07T04:54:25.045Z,13.62
2017-10-07T04:55:35.060Z,13.63
2017-10-07T04:56:45.077Z,13.54
2017-10-07T04:57:55.096Z,13.62
2017-10-07T04:59:05.433Z,13.63
2017-10-07T05:00:15.772Z,13.65
2017-10-07T05:01:26.112Z,13.68
2017-10-07T05:02:36.484Z,13.66
2017-10-07T05:03:46.509Z,13.7
2017-10-07T05:04:56.844Z,13.76
2017-10-07T05:06:06.861Z,13.76
2017-10-07T05:07:17.194Z,13.75
2017-10-07T05:08:27.546Z,13.88
2017-10-07T05:09:37.891Z,13.88
2017-10-07T05:10:47.911Z,13.87
2017-10-07T05:11:57.928Z,13.86
2017-10-07T05:13:08.330Z,13.87
2017-10-07T05:14:18.675Z,13.9
2017-10-07T05:15:29.044Z,13.87
2017-10-07T05:16:39.386Z,13.94
2017-10-07T05:17:49.737Z,13.99
2017-10-07T05:19:00.100Z,13.99
2017-10-07T05:20:10.424Z,13.97
2017-10-07T05:21:20.122Z,13.99
2017-10-07T05:22:30.142Z,14.02
2017-10-07T05:23:40.482Z,14.09
2017-10-07T05:24:50.876Z,14.09
2017-10-07T05:26:00.899Z,14.16
2017-10-07T05:27:10.921Z,14.2
2017-10-07T05:28:21.253Z,14.21
2017-10-07T05:29:31.271Z,14.21
2017-10-07T05:30:41.604Z,14.26
2017-10-07T05:31:51.999Z,14.28
2017-10-07T05:33:02.337Z,14.28
2017-10-07T05:34:12.672Z,14.3
2017-10-07T05:35:23.003Z,14.34
2017-10-07T05:36:33.342Z,14.38
2017-10-07T05:37:43.703Z,14.27
2017-10-07T05:38:53.721Z,14.28
2017-10-07T05:40:04.058Z,14.41
2017-10-07T05:41:14.389Z,14.49
2017-10-07T05:42:24.770Z,14.44
2017-10-07T05:43:34.789Z,14.51
2017-10-07T05:44:44.803Z,14.53
2017-10-07T05:45:55.149Z,14.52
2017-10-07T05:47:05.163Z,14.56
2017-10-07T05:48:15.525Z,14.61
2017-10-07T05:49:25.861Z,14.53
2017-10-07T05:50:36.238Z,14.52
2017-10-07T05:51:46.591Z,14.46
2017-10-07T05:52:56.930Z,14.53
2017-10-07T05:54:07.016Z,14.48
2017-10-07T05:55:17.364Z,14.41
2017-10-07T05:56:27.717Z,14.36
2017-10-07T05:57:38.059Z,14.41
2017-10-07T05:58:48.403Z,14.28
2017-10-07T05:59:58.757Z,14.42
2017-10-07T06:01:09.782Z,14.61
2017-10-07T06:02:20.120Z,14.63
2017-10-07T06:03:30.139Z,14.75
2017-10-07T06:04:40.517Z,14.86
2017-10-07T06:05:50.563Z,14.9
2017-10-07T06:07:00.886Z,14.86
2017-10-07T06:08:11.232Z,14.87
2017-10-07T06:09:21.241Z,14.9
2017-10-07T06:10:31.606Z,14.89
2017-10-07T06:11:41.630Z,14.94
2017-10-07T06:12:51.685Z,14.9
2017-10-07T06:14:02.018Z,15
2017-10-07T06:15:12.044Z,15.05
2017-10-07T06:16:22.051Z,15
2017-10-07T06:17:32.432Z,15.08
2017-10-07T06:18:42.776Z,14.95
2017-10-07T06:19:52.796Z,15.05
2017-10-07T06:21:02.810Z,14.98
2017-10-07T06:22:12.856Z,15
2017-10-07T06:23:23.211Z,14.98
2017-10-07T06:24:33.224Z,15
2017-10-07T06:25:43.556Z,15.1
2017-10-07T06:26:53.895Z,15.05
2017-10-07T06:28:03.623Z,15.13
2017-10-07T06:29:14.035Z,15.26
2017-10-07T06:30:24.050Z,15.35
2017-10-07T06:31:34.417Z,15.52
2017-10-07T06:32:44.755Z,15.62
2017-10-07T06:33:54.775Z,15.75
2017-10-07T06:35:05.160Z,15.83
2017-10-07T06:36:15.511Z,15.93
2017-10-07T06:37:25.869Z,15.96
2017-10-07T06:38:36.198Z,15.93
2017-10-07T06:39:46.545Z,16.07
2017-10-07T06:40:56.947Z,16.07
2017-10-07T06:42:06.958Z,16.16
2017-10-07T06:43:17.310Z,16.22
2017-10-07T06:44:27.347Z,16.22
2017-10-07T06:45:37.377Z,16.26
2017-10-07T06:46:47.770Z,16.14
2017-10-07T06:47:58.143Z,16.11
2017-10-07T06:49:08.486Z,16.07
2017-10-07T06:50:18.829Z,15.88
2017-10-07T06:51:29.176Z,15.84
2017-10-07T06:52:39.565Z,15.77
2017-10-07T06:53:49.577Z,15.7
2017-10-07T06:54:59.911Z,15.63
2017-10-07T06:56:10.245Z,15.59
2017-10-07T06:57:20.593Z,15.52
2017-10-07T06:58:30.941Z,15.58
2017-10-07T06:59:41.280Z,15.59
2017-10-07T07:00:51.621Z,15.88
2017-10-07T07:02:01.351Z,15.84
2017-10-07T07:03:11.697Z,16.04
2017-10-07T07:04:22.044Z,15.99
2017-10-07T07:05:32.079Z,16.21
2017-10-07T07:06:42.131Z,16.25
2017-10-07T07:07:52.458Z,16.37
2017-10-07T07:09:02.795Z,16.37
2017-10-07T07:10:13.182Z,16.45
2017-10-07T07:11:23.216Z,16.34
2017-10-07T07:12:33.250Z,16.37
2017-10-07T07:13:43.277Z,16.42
2017-10-07T07:14:53.658Z,16.45
2017-10-07T07:16:04.045Z,16.52
2017-10-07T07:17:14.053Z,16.49
2017-10-07T07:18:25.055Z,16.65
2017-10-07T07:19:35.400Z,16.62
2017-10-07T07:20:45.433Z,16.52
2017-10-07T07:21:55.458Z,16.57
2017-10-07T07:23:05.807Z,16.58
2017-10-07T07:24:15.834Z,16.66
2017-10-07T07:25:25.858Z,16.67
2017-10-07T07:26:36.222Z,16.63
2017-10-07T07:27:46.617Z,16.67
2017-10-07T07:28:56.647Z,16.69
2017-10-07T07:30:06.358Z,16.72
2017-10-07T07:31:16.729Z,16.65
2017-10-07T07:32:26.443Z,16.73
2017-10-07T07:33:36.544Z,16.76
2017-10-07T07:34:46.874Z,16.82
2017-10-07T07:35:56.901Z,16.74
2017-10-07T07:37:07.238Z,16.81
2017-10-07T07:38:17.584Z,16.84
2017-10-07T07:39:27.648Z,16.91
2017-10-07T07:40:37.682Z,16.92
2017-10-07T07:41:48.005Z,16.92
2017-10-07T07:42:58.036Z,17
2017-10-07T07:44:08.384Z,17
2017-10-07T07:45:18.741Z,17
2017-10-07T07:46:29.070Z,17.06
2017-10-07T07:47:39.418Z,17.13
2017-10-07T07:48:49.765Z,17.13
2017-10-07T07:49:59.793Z,17.13
2017-10-07T07:51:10.124Z,17.12
2017-10-07T07:52:20.169Z,17.22
2017-10-07T07:53:30.522Z,17.31
2017-10-07T07:54:40.858Z,17.35
2017-10-07T07:55:51.215Z,17.45
2017-10-07T07:57:01.558Z,17.45
2017-10-07T07:58:11.909Z,17.43
2017-10-07T07:59:22.232Z,17.46
2017-10-07T08:00:32.257Z,17.57
2017-10-07T08:01:42.595Z,17.63
2017-10-07T08:02:52.672Z,17.65
2017-10-07T08:04:03.003Z,17.73
2017-10-07T08:05:13.030Z,17.83
2017-10-07T08:06:23.390Z,17.9
2017-10-07T08:07:33.759Z,17.86
2017-10-07T08:08:44.112Z,17.86
2017-10-07T08:09:54.444Z,18.06
2017-10-07T08:11:04.802Z,18.11
2017-10-07T08:12:14.844Z,18.03
2017-10-07T08:13:25.183Z,17.98
2017-10-07T08:14:35.568Z,17.95
2017-10-07T08:15:45.902Z,18.05
2017-10-07T08:16:56.258Z,18.14
2017-10-07T08:18:06.289Z,18.23
2017-10-07T08:19:16.656Z,18.23
2017-10-07T08:20:26.997Z,18.2
2017-10-07T08:21:37.033Z,18.29
2017-10-07T08:22:47.063Z,18.35
2017-10-07T08:23:57.088Z,18.53
2017-10-07T08:25:07.133Z,18.47
2017-10-07T08:26:17.162Z,18.57
2017-10-07T08:27:27.185Z,18.54
2017-10-07T08:28:37.511Z,18.89
2017-10-07T08:29:47.862Z,18.99
2017-10-07T08:30:57.571Z,19.24
2017-10-07T08:32:07.961Z,19.45
2017-10-07T08:33:17.992Z,19.65
2017-10-07T08:34:28.353Z,19.78
2017-10-07T08:35:38.710Z,19.74
2017-10-07T08:36:48.737Z,19.87
2017-10-07T08:37:59.125Z,19.65
2017-10-07T08:39:09.466Z,19.75
2017-10-07T08:40:19.815Z,19.8
2017-10-07T08:41:30.168Z,19.67
2017-10-07T08:42:40.519Z,19.97
2017-10-07T08:43:50.638Z,19.67
2017-10-07T08:45:01.013Z,19.67
2017-10-07T08:46:11.364Z,19.72
2017-10-07T08:47:21.718Z,20.05
2017-10-07T08:48:32.067Z,20.05
2017-10-07T08:49:42.099Z,19.8
2017-10-07T08:50:52.120Z,20.07
2017-10-07T08:52:02.466Z,20.15
2017-10-07T08:53:12.811Z,20.34
2017-10-07T08:54:22.850Z,20.44
2017-10-07T08:55:32.945Z,20.49
2017-10-07T08:56:43.286Z,20.71
2017-10-07T08:57:53.319Z,20.53
2017-10-07T08:59:03.659Z,20.81
2017-10-07T09:00:13.998Z,21.08
2017-10-07T09:01:24.024Z,21.38
2017-10-07T09:02:34.400Z,21.09
2017-10-07T09:03:44.748Z,21.03
2017-10-07T09:04:55.121Z,20.72
2017-10-07T09:06:05.455Z,20.6
2017-10-07T09:07:15.822Z,20.78
2017-10-07T09:08:26.165Z,20.93
2017-10-07T09:09:35.568Z,21.22
2017-10-07T09:10:45.926Z,21.21
2017-10-07T09:11:56.285Z,21.19
2017-10-07T09:13:06.368Z,20.93
2017-10-07T09:14:16.389Z,20.98
2017-10-07T09:15:26.746Z,21.49
2017-10-07T09:16:37.108Z,21.52
2017-10-07T09:17:47.459Z,21.67
2017-10-07T09:18:57.479Z,21.73
2017-10-07T09:20:07.523Z,21.19
2017-10-07T09:21:17.871Z,21.22
2017-10-07T09:22:28.217Z,21.19
2017-10-07T09:23:38.570Z,20.81
2017-10-07T09:24:48.945Z,20.81
2017-10-07T09:25:59.291Z,20.9
2017-10-07T09:27:09.636Z,20.74
2017-10-07T09:28:20.010Z,21.06
2017-10-07T09:29:30.027Z,21.36
2017-10-07T09:30:40.418Z,21.22
2017-10-07T09:31:50.785Z,21.46
2017-10-07T09:33:00.853Z,21.71
2017-10-07T09:34:10.897Z,21.89
2017-10-07T09:35:21.251Z,21.92
2017-10-07T09:36:31.287Z,21.83
2017-10-07T09:37:41.311Z,22.02
2017-10-07T09:38:51.666Z,21.8
2017-10-07T09:40:02.012Z,21.41
2017-10-07T09:41:12.369Z,21.51
2017-10-07T09:42:22.466Z,21.59
2017-10-07T09:43:32.503Z,21.61
2017-10-07T09:44:42.540Z,21.45
2017-10-07T09:45:52.895Z,20.94
2017-10-07T09:47:02.920Z,21.15
2017-10-07T09:48:13.295Z,21.46
2017-10-07T09:49:23.631Z,21.62
2017-10-07T09:50:33.978Z,21.13
2017-10-07T09:51:44.010Z,21.04
2017-10-07T09:52:54.354Z,21.21
2017-10-07T09:54:04.754Z,21.12
2017-10-07T09:55:15.102Z,21.18
2017-10-07T09:56:25.438Z,21.03
2017-10-07T09:57:35.495Z,20.61
2017-10-07T09:58:45.841Z,20.49
2017-10-07T09:59:55.913Z,20.58
2017-10-07T10:01:06.279Z,20.41
2017-10-07T10:02:16.636Z,20.08
2017-10-07T10:03:26.691Z,20.34
2017-10-07T10:04:37.032Z,20.4
2017-10-07T10:05:47.386Z,20.46
2017-10-07T10:06:57.733Z,20.56
2017-10-07T10:08:08.085Z,20.72
2017-10-07T10:09:18.434Z,20.93
2017-10-07T10:10:28.124Z,21.18
2017-10-07T10:11:38.535Z,21.11
2017-10-07T10:12:48.897Z,20.93
2017-10-07T10:13:59.235Z,20.86
2017-10-07T10:15:09.601Z,20.85
2017-10-07T10:16:19.956Z,20.76
2017-10-07T10:17:30.301Z,20.82
2017-10-07T10:18:40.018Z,20.72
2017-10-07T10:19:50.368Z,21.08
2017-10-07T10:21:00.384Z,20.93
2017-10-07T10:22:10.731Z,20.86
2017-10-07T10:23:21.063Z,20.86
2017-10-07T10:24:31.397Z,21.23
2017-10-07T10:25:41.729Z,21.48
2017-10-07T10:26:51.765Z,21.46
2017-10-07T10:28:02.110Z,21.49
2017-10-07T10:29:12.503Z,21.36
2017-10-07T10:30:22.850Z,21.22
2017-10-07T10:31:33.187Z,21.22
2017-10-07T10:32:43.533Z,21.27
2017-10-07T10:33:53.898Z,21.43
2017-10-07T10:35:04.301Z,21.58
2017-10-07T10:36:14.340Z,21.66
2017-10-07T10:37:24.692Z,21.71
2017-10-07T10:38:34.722Z,21.67
2017-10-07T10:39:44.433Z,21.64
2017-10-07T10:40:54.770Z,21.58
2017-10-07T10:42:05.127Z,21.48
2017-10-07T10:43:15.505Z,21.59
2017-10-07T10:44:25.861Z,21.61
2017-10-07T10:45:36.205Z,21.66
2017-10-07T10:46:46.595Z,21.64
2017-10-07T10:47:56.921Z,21.64
2017-10-07T10:49:06.985Z,21.86
2017-10-07T10:50:17.338Z,22.08
2017-10-07T10:51:27.692Z,22.26
2017-10-07T10:52:38.056Z,22.24
2017-10-07T10:53:48.401Z,22.36
2017-10-07T10:54:58.412Z,22.45
2017-10-07T10:56:08.128Z,22.63
2017-10-07T10:57:18.160Z,22.94
2017-10-07T10:58:28.578Z,23.52
2017-10-07T10:59:38.929Z,23.9
2017-10-07T11:00:48.982Z,23.84
2017-10-07T11:01:59.002Z,23.48
2017-10-07T11:03:09.355Z,23.1
2017-10-07T11:04:19.739Z,23.1
2017-10-07T11:05:30.072Z,22.91
2017-10-07T11:06:40.413Z,23.45
2017-10-07T11:07:50.753Z,23.56
2017-10-07T11:09:01.114Z,23.35
2017-10-07T11:10:11.520Z,23.32
2017-10-07T11:11:21.875Z,23.48
2017-10-07T11:12:32.256Z,23.16
2017-10-07T11:13:42.305Z,23.15
2017-10-07T11:14:52.668Z,22.96
2017-10-07T11:16:03.022Z,22.78
2017-10-07T11:17:13.371Z,22.38
2017-10-07T11:18:23.393Z,22.45
2017-10-07T11:19:33.739Z,22.52
2017-10-07T11:20:43.441Z,22.99
2017-10-07T11:21:53.517Z,23.21
2017-10-07T11:23:03.867Z,23.41
2017-10-07T11:24:14.219Z,22.86
2017-10-07T11:25:24.252Z,22.33
2017-10-07T11:26:34.603Z,22.36
2017-10-07T11:27:44.944Z,22.36
2017-10-07T11:28:54.977Z,22.38
2017-10-07T11:30:05.000Z,21.8
2017-10-07T11:31:15.385Z,21.41
2017-10-07T11:32:25.711Z,20.93
2017-10-07T11:33:36.110Z,20.64
2017-10-07T11:34:46.492Z,20.58
2017-10-07T11:35:56.512Z,20.91
2017-10-07T11:37:06.874Z,21.49
2017-10-07T11:38:16.897Z,21.49
2017-10-07T11:39:27.291Z,21.09
2017-10-07T11:40:37.650Z,20.83
2017-10-07T11:41:47.677Z,21.11
2017-10-07T11:42:57.999Z,21.48
2017-10-07T11:44:08.335Z,21.27
2017-10-07T11:45:18.374Z,21.7
2017-10-07T11:46:28.101Z,22
2017-10-07T11:47:38.456Z,22.3
2017-10-07T11:48:48.505Z,22.3
2017-10-07T11:49:58.858Z,21.92
2017-10-07T11:51:09.203Z,21.74
2017-10-07T11:52:19.546Z,21.73
2017-10-07T11:53:29.899Z,21.77
2017-10-07T11:54:40.242Z,21.68
2017-10-07T11:55:50.602Z,21.38
2017-10-07T11:57:00.927Z,21.19
2017-10-07T11:58:11.266Z,20.85
2017-10-07T11:59:21.316Z,21.23
2017-10-07T12:00:31.680Z,21.61
2017-10-07T12:01:42.053Z,22
2017-10-07T12:02:52.141Z,21.61
2017-10-07T12:04:02.188Z,21.7
2017-10-07T12:05:12.567Z,21.76
2017-10-07T12:06:22.587Z,22.24
2017-10-07T12:07:32.948Z,22.7
2017-10-07T12:08:43.354Z,22.94
2017-10-07T12:09:53.696Z,23.19
2017-10-07T12:11:04.056Z,23.47
2017-10-07T12:12:14.403Z,23.52
2017-10-07T12:13:24.749Z,23.52
2017-10-07T12:14:35.142Z,23.53
2017-10-07T12:15:45.489Z,23.5
2017-10-07T12:16:55.862Z,23.34
2017-10-07T12:18:06.207Z,23.24
2017-10-07T12:19:16.577Z,23.07
2017-10-07T12:20:26.974Z,22.51
2017-10-07T12:21:36.998Z,22.08
2017-10-07T12:22:47.363Z,21.64
2017-10-07T12:23:57.391Z,21.53
2017-10-07T12:25:07.419Z,21.43
2017-10-07T12:26:17.459Z,21.68
2017-10-07T12:27:27.831Z,21.55
2017-10-07T12:28:37.851Z,21.38
2017-10-07T12:29:47.569Z,21.61
2017-10-07T12:30:57.900Z,21.89
2017-10-07T12:32:08.252Z,21.56
2017-10-07T12:33:18.603Z,21.38
2017-10-07T12:34:28.317Z,21.27
2017-10-07T12:35:38.346Z,20.83
2017-10-07T12:36:48.685Z,20.88
2017-10-07T12:37:58.450Z,21.55
2017-10-07T12:39:08.495Z,21.96
2017-10-07T12:40:18.541Z,22.26
2017-10-07T12:41:28.563Z,22.24
2017-10-07T12:42:38.596Z,22.22
2017-10-07T12:43:48.673Z,22.3
2017-10-07T12:44:59.003Z,22.26
2017-10-07T12:46:09.039Z,22.27
2017-10-07T12:47:19.388Z,22.26
2017-10-07T12:48:29.742Z,22.2
2017-10-07T12:49:39.811Z,22.23
2017-10-07T12:50:49.831Z,22.16
2017-10-07T12:52:00.187Z,22.34
2017-10-07T12:53:10.524Z,22.51
2017-10-07T12:54:20.230Z,22.76
2017-10-07T12:55:30.578Z,22.88
2017-10-07T12:56:40.918Z,23.03
2017-10-07T12:57:51.270Z,22.88
2017-10-07T12:59:01.613Z,22.89
2017-10-07T13:00:11.645Z,23.24
2017-10-07T13:01:22.056Z,23.45
2017-10-07T13:02:32.414Z,23.6
2017-10-07T13:03:42.759Z,23.64
2017-10-07T13:04:52.793Z,23.12
2017-10-07T13:06:03.132Z,22.76
2017-10-07T13:07:13.150Z,22.33
2017-10-07T13:08:23.501Z,21.83
2017-10-07T13:09:33.841Z,21.49
2017-10-07T13:10:44.186Z,21.27
2017-10-07T13:11:54.220Z,21.03
2017-10-07T13:13:04.616Z,21.01
2017-10-07T13:14:15.005Z,20.72
2017-10-07T13:15:25.373Z,20.35
2017-10-07T13:16:35.391Z,20.37
2017-10-07T13:17:45.743Z,20.23
2017-10-07T13:18:56.140Z,20.12
2017-10-07T13:20:06.164Z,20.1
2017-10-07T13:21:16.202Z,20.12
2017-10-07T13:22:26.238Z,20.38
2017-10-07T13:23:36.263Z,20.79
2017-10-07T13:24:46.606Z,21.03
2017-10-07T13:25:56.953Z,21.25
2017-10-07T13:27:06.650Z,21.48
2017-10-07T13:28:16.662Z,21.62
2017-10-07T13:29:27.040Z,21.64
2017-10-07T13:30:37.445Z,21.78
2017-10-07T13:31:47.797Z,21.94
2017-10-07T13:32:57.831Z,21.94
2017-10-07T13:34:08.199Z,22.14
2017-10-07T13:35:18.198Z,22.24
2017-10-07T13:36:28.299Z,22.3
2017-10-07T13:37:38.666Z,21.86
2017-10-07T13:38:48.698Z,21.48
2017-10-07T13:39:58.721Z,21.08
2017-10-07T13:41:08.767Z,20.79
2017-10-07T13:42:19.139Z,20.54
2017-10-07T13:43:29.498Z,20.86
2017-10-07T13:44:39.833Z,21.03
2017-10-07T13:45:50.178Z,21.04
2017-10-07T13:47:01.628Z,21.13
2017-10-07T13:48:11.972Z,21.12
2017-10-07T13:49:21.990Z,21.04
2017-10-07T13:50:32.332Z,20.93
2017-10-07T13:51:42.686Z,20.94
2017-10-07T13:52:53.079Z,20.94
2017-10-07T13:54:03.416Z,20.96
2017-10-07T13:55:13.797Z,20.97
2017-10-07T13:56:23.817Z,20.81
2017-10-07T13:57:33.533Z,20.4
2017-10-07T13:58:43.913Z,20.29
2017-10-07T13:59:54.266Z,20.07
2017-10-07T14:01:04.296Z,20
2017-10-07T14:02:14.663Z,20
2017-10-07T14:03:25.011Z,20.01
2017-10-07T14:04:35.088Z,20.02
2017-10-07T14:05:45.456Z,19.98
2017-10-07T14:06:55.505Z,19.85
2017-10-07T14:08:06.986Z,19.8
2017-10-07T14:09:17.018Z,19.75
2017-10-07T14:10:27.391Z,19.64
2017-10-07T14:11:37.407Z,19.45
2017-10-07T14:12:47.765Z,19.4
2017-10-07T14:13:58.125Z,19.28
2017-10-07T14:15:08.487Z,19.25
2017-10-07T14:16:18.560Z,19.23
2017-10-07T14:17:28.598Z,19.09
2017-10-07T14:18:38.672Z,18.99
2017-10-07T14:19:48.717Z,19.02
2017-10-07T14:20:59.058Z,19.07
2017-10-07T14:22:09.161Z,19.09
2017-10-07T14:23:20.250Z,19.09
2017-10-07T14:24:30.282Z,19.17
2017-10-07T14:25:40.638Z,19.19
2017-10-07T14:26:51.014Z,19.25
2017-10-07T14:28:01.428Z,19.2
2017-10-07T14:29:11.750Z,19.25
2017-10-07T14:30:22.102Z,19.27
2017-10-07T14:31:32.125Z,19.27
2017-10-07T14:32:42.469Z,19.27
2017-10-07T14:33:52.517Z,19.23
2017-10-07T14:35:02.868Z,19.1
2017-10-07T14:36:12.904Z,19.02
2017-10-07T14:37:23.248Z,18.96
2017-10-07T14:38:33.573Z,18.9
2017-10-07T14:39:43.648Z,18.86
2017-10-07T14:40:54.022Z,18.71
2017-10-07T14:42:04.383Z,18.61
2017-10-07T14:43:14.732Z,18.54
2017-10-07T14:44:24.777Z,18.47
2017-10-07T14:45:35.121Z,18.47
2017-10-07T14:46:45.464Z,18.54
2017-10-07T14:47:55.483Z,18.56
2017-10-07T14:49:05.850Z,18.69
2017-10-07T14:50:16.201Z,18.75
2017-10-07T14:51:26.589Z,18.86
2017-10-07T14:52:36.606Z,19.12
2017-10-07T14:53:46.946Z,19.2
2017-10-07T14:54:57.299Z,19.28
2017-10-07T14:56:07.655Z,19.27
2017-10-07T14:57:18.038Z,19.2
2017-10-07T14:58:28.378Z,19.23
2017-10-07T14:59:38.703Z,19.23
2017-10-07T15:00:49.053Z,19.17
2017-10-07T15:01:59.087Z,19.12
2017-10-07T15:03:09.425Z,19.12
2017-10-07T15:04:19.786Z,18.97
2017-10-07T15:05:30.152Z,18.94
2017-10-07T15:06:40.183Z,18.97
2017-10-07T15:07:50.545Z,18.97
2017-10-07T15:09:00.947Z,18.94
2017-10-07T15:10:11.320Z,18.97
2017-10-07T15:11:21.348Z,18.76
2017-10-07T15:12:31.405Z,18.56
2017-10-07T15:13:41.747Z,18.51
2017-10-07T15:14:52.508Z,18.42
2017-10-07T15:16:02.850Z,18.32
2017-10-07T15:17:12.876Z,18.2
2017-10-07T15:18:23.224Z,18.27
2017-10-07T15:19:33.567Z,18.13
2017-10-07T15:20:43.908Z,18.08
2017-10-07T15:21:53.938Z,17.94
2017-10-07T15:23:04.495Z,17.94
2017-10-07T15:24:14.845Z,17.95
2017-10-07T15:25:25.175Z,17.98
2017-10-07T15:26:35.582Z,17.92
2017-10-07T15:27:45.637Z,17.87
2017-10-07T15:28:55.970Z,17.96
2017-10-07T15:30:06.001Z,17.84
2017-10-07T15:31:16.399Z,17.9
2017-10-07T15:32:26.806Z,17.94
2017-10-07T15:33:37.217Z,17.86
2017-10-07T15:34:47.253Z,17.9
2017-10-07T15:35:57.620Z,17.92
2017-10-07T15:37:07.342Z,17.87
2017-10-07T15:38:17.717Z,17.86